Time;durP1;ratioP1;P1;durP2;ratioP2;P2;SDS_P1;SDS_P2;PMS_P1;PMS_P2;Temp;Humidity;BMP_temperature;BMP_pressure;BME280_temperature;BME280_humidity;BME280_pressure;Samples;Min_cycle;Max_cycle;Signal;HPM_P1;HPM_P2
2021/03/29 00:00:14;;;;;;;36.38;20.12;;;;;;;4.89;67.06;101951.11;1701387;83;25943;-76
2021/03/29 00:02:43;;;;;;;41.48;19.17;;;;;;;4.93;67.16;101949.05;1683100;83;26126;-76
2021/03/29 00:05:13;;;;;;;39.38;20.52;;;;;;;4.97;67.21;101950.51;1681125;83;26784;-76
2021/03/29 00:07:44;;;;;;;41.05;19.27;;;;;;;4.99;67.17;101949.91;1705913;83;25772;-76
2021/03/29 00:10:13;;;;;;;40.38;20.90;;;;;;;5.01;67.14;101951.95;1721514;82;26641;-76
2021/03/29 00:12:44;;;;;;;38.90;18.77;;;;;;;5.02;67.26;101945.70;1655136;83;26003;-76
2021/03/29 00:15:17;;;;;;;;;;;;;;;5.03;67.22;101945.57;1685672;82;27622;-76
2021/03/29 00:17:45;;;;;;;40.25;20.30;;;;;;;4.99;67.50;101944.12;1691475;83;25787;-75
2021/03/29 00:20:17;;;;;;;40.60;18.80;;;;;;;4.99;67.52;101951.23;1672083;83;25815;-76
2021/03/29 00:22:45;;;;;;;36.40;19.92;;;;;;;4.98;67.45;101955.72;1693094;83;25765;-76
2021/03/29 00:25:19;;;;;;;37.58;19.82;;;;;;;4.96;67.47;101952.81;1710848;82;26087;-76
2021/03/29 00:27:46;;;;;;;33.55;18.32;;;;;;;4.95;67.60;101952.44;1693976;83;28382;-76
2021/03/29 00:30:21;;;;;;;34.08;17.77;;;;;;;4.98;67.77;101954.87;1694263;81;26405;-76
2021/03/29 00:32:51;;;;;;;32.45;16.75;;;;;;;4.92;67.70;101956.67;1723304;81;25818;-76
2021/03/29 00:35:22;;;;;;;35.08;18.48;;;;;;;4.90;67.55;101958.09;1699117;81;25712;-76
2021/03/29 00:37:56;;;;;;;34.10;17.80;;;;;;;4.91;67.57;101955.82;1703185;81;25770;-76
2021/03/29 00:40:25;;;;;;;36.75;18.30;;;;;;;4.92;67.30;101958.82;1698744;83;27552;-76
2021/03/29 00:43:01;;;;;;;36.60;18.35;;;;;;;4.96;67.33;101953.64;1689495;81;25860;-76
2021/03/29 00:45:28;;;;;;;36.63;19.15;;;;;;;5.00;67.27;101954.27;1699106;83;25891;-76
2021/03/29 00:47:57;;;;;;;40.92;19.85;;;;;;;5.02;67.18;101959.83;1730616;81;25875;-76
2021/03/29 00:50:32;;;;;;;44.33;20.72;;;;;;;5.04;67.17;101954.39;1700015;81;25734;-76
2021/03/29 00:53:01;;;;;;;48.92;20.25;;;;;;;5.07;67.17;101948.86;1703237;82;27554;-76
2021/03/29 00:55:29;;;;;;;36.45;17.87;;;;;;;5.08;67.07;101951.38;1687923;82;25839;-76
2021/03/29 00:57:58;;;;;;;37.30;19.60;;;;;;;5.09;67.12;101953.56;1697591;81;25809;-76
2021/03/29 01:00:46;;;;;;;44.38;20.02;;;;;;;5.10;67.21;101952.11;1704186;83;25966;-75
2021/03/29 01:03:20;;;;;;;36.17;18.07;;;;;;;5.13;67.36;101948.37;1703400;83;25729;-76
2021/03/29 01:06:05;;;;;;;44.75;19.80;;;;;;;5.10;67.23;101943.29;1724357;81;27643;-75
2021/03/29 01:08:36;;;;;;;40.28;20.55;;;;;;;5.11;67.23;101946.33;1700884;83;25774;-75
2021/03/29 01:11:06;;;;;;;43.68;20.72;;;;;;;5.14;67.21;101944.27;1690439;84;25816;-75
2021/03/29 01:13:39;;;;;;;38.42;18.57;;;;;;;5.14;67.10;101950.91;1687178;81;25927;-75
2021/03/29 01:16:07;;;;;;;38.98;19.73;;;;;;;5.16;67.08;101943.66;1699972;83;25975;-75
2021/03/29 01:18:36;;;;;;;40.78;20.35;;;;;;;5.17;67.05;101945.84;1689169;82;27449;-76
2021/03/29 01:21:28;;;;;;;44.75;20.90;;;;;;;5.20;67.09;101942.92;1663621;83;26273;-75
2021/03/29 01:24:01;;;;;;;37.33;19.05;;;;;;;5.22;67.03;101943.66;1704901;84;25753;-75
2021/03/29 01:26:42;;;;;;;35.52;19.92;;;;;;;5.26;67.06;101937.98;1698631;82;25788;-75
2021/03/29 01:29:10;;;;;;;35.13;20.25;;;;;;;5.28;66.92;101941.87;1690506;82;26134;-75
2021/03/29 01:31:38;;;;;;;35.73;19.87;;;;;;;5.29;66.98;101940.41;1684758;83;27561;-75
2021/03/29 01:34:09;;;;;;;42.60;20.65;;;;;;;5.28;66.99;101933.39;1700204;83;25749;-75
2021/03/29 01:36:37;;;;;;;;;;;;;;;5.26;67.10;101931.34;1681853;83;25717;-76
2021/03/29 01:39:06;;;;;;;42.65;20.40;;;;;;;5.23;67.16;101927.62;1702610;83;25906;-74
2021/03/29 01:41:34;;;;;;;35.35;19.52;;;;;;;5.18;67.17;101923.14;1643841;83;25928;-75
2021/03/29 01:44:02;;;;;;;38.78;19.92;;;;;;;5.18;67.19;101925.80;1662625;83;27431;-76
2021/03/29 01:46:30;;;;;;;37.33;20.43;;;;;;;5.18;67.12;101930.25;1706015;83;25930;-75
2021/03/29 01:48:58;;;;;;;37.95;19.35;;;;;;;5.21;67.18;101930.03;1699138;82;25721;-76
2021/03/29 01:51:28;;;;;;;40.88;20.57;;;;;;;5.24;67.18;101937.26;1671987;83;26472;-75
2021/03/29 01:53:56;;;;;;;38.83;20.62;;;;;;;5.26;67.02;101940.64;1704599;83;25850;-76
2021/03/29 01:56:24;;;;;;;41.73;19.75;;;;;;;5.27;67.02;101944.15;1680590;82;27362;-75
2021/03/29 01:58:51;;;;;;;35.45;19.42;;;;;;;5.26;66.96;101938.49;1678989;83;26186;-76
2021/03/29 02:01:18;;;;;;;39.58;20.15;;;;;;;5.26;66.98;101936.66;1660674;84;26562;-75
2021/03/29 02:03:48;;;;;;;45.83;19.75;;;;;;;5.26;66.91;101950.45;1678356;83;26650;-76
2021/03/29 02:06:18;;;;;;;33.80;19.52;;;;;;;5.26;67.01;101950.45;1677857;83;26508;-76
2021/03/29 02:08:46;;;;;;;37.03;19.07;;;;;;;5.29;67.10;101943.55;1704214;82;28025;-75
2021/03/29 02:11:16;;;;;;;40.38;20.57;;;;;;;5.30;67.07;101942.59;1647094;83;26552;-76
2021/03/29 02:13:48;;;;;;;42.48;20.60;;;;;;;5.31;67.05;101942.47;1682254;83;25962;-75
2021/03/29 02:16:16;;;;;;;38.60;20.52;;;;;;;5.34;67.06;101944.89;1677609;83;26393;-76
2021/03/29 02:18:48;;;;;;;42.15;20.30;;;;;;;5.38;67.14;101938.84;1699193;83;25916;-75
2021/03/29 02:21:20;;;;;;;42.93;21.02;;;;;;;5.39;67.09;101935.20;1659467;83;27651;-75
2021/03/29 02:23:53;;;;;;;39.20;20.43;;;;;;;5.41;67.22;101933.27;1676691;83;25772;-75
2021/03/29 02:26:22;;;;;;;41.92;20.30;;;;;;;5.39;67.30;101929.42;1681822;83;25768;-76
2021/03/29 02:28:50;;;;;;;33.95;20.10;;;;;;;5.38;67.37;101936.19;1698426;83;26344;-76
2021/03/29 02:31:18;;;;;;;34.13;20.40;;;;;;;5.38;67.49;101937.52;1676002;84;25814;-75
2021/03/29 02:33:48;;;;;;;40.55;20.40;;;;;;;5.41;67.50;101936.78;1654527;83;27563;-75
2021/03/29 02:36:18;;;;;;;43.30;21.95;;;;;;;5.43;67.54;101938.02;1673273;83;25779;-76
2021/03/29 02:38:45;;;;;;;36.70;19.48;;;;;;;5.43;67.63;101936.17;1698948;83;26080;-75
2021/03/29 02:41:12;;;;;;;43.98;21.93;;;;;;;5.47;67.66;101937.62;1656835;83;25844;-75
2021/03/29 02:43:42;;;;;;;46.08;21.73;;;;;;;5.49;67.70;101938.85;1692911;83;25804;-75
2021/03/29 02:46:10;;;;;;;39.63;21.20;;;;;;;5.47;67.80;101935.47;1651725;84;28318;-76
2021/03/29 02:48:41;;;;;;;36.55;21.10;;;;;;;5.44;67.89;101929.91;1680927;84;25790;-75
2021/03/29 02:51:13;;;;;;;;;;;;;;;5.48;68.11;101935.81;1667421;83;25923;-75
2021/03/29 02:53:58;;;;;;;35.83;20.30;;;;;;;5.46;68.01;101936.42;1673135;84;25838;-76
2021/03/29 02:56:33;;;;;;;44.48;20.50;;;;;;;5.44;68.11;101941.02;1675251;83;25806;-75
2021/03/29 02:59:06;;;;;;;39.53;21.05;;;;;;;5.40;68.39;101938.23;1653016;84;28542;-75
2021/03/29 03:01:38;;;;;;;37.95;21.30;;;;;;;5.40;68.46;101940.90;1687697;83;25880;-76
2021/03/29 03:04:09;;;;;;;36.50;19.12;;;;;;;5.37;68.52;101936.66;1688520;83;25782;-75
2021/03/29 03:06:39;;;;;;;36.80;22.02;;;;;;;5.36;68.64;101936.32;1669699;83;25981;-75
2021/03/29 03:09:08;;;;;;;37.35;20.95;;;;;;;5.36;68.76;101934.14;1654181;83;25796;-75
2021/03/29 03:11:36;;;;;;;41.90;19.75;;;;;;;5.35;68.70;101933.76;1686583;83;27613;-76
2021/03/29 03:14:06;;;;;;;36.45;20.15;;;;;;;5.36;68.79;101939.45;1669605;83;25745;-76
2021/03/29 03:16:37;;;;;;;35.75;20.48;;;;;;;5.35;68.85;101941.73;1650691;83;25913;-76
2021/03/29 03:19:06;;;;;;;38.70;20.35;;;;;;;5.34;68.96;101930.28;1706155;83;25872;-75
2021/03/29 03:21:37;;;;;;;44.70;21.33;;;;;;;5.34;69.00;101926.77;1712692;83;26322;-76
2021/03/29 03:24:06;;;;;;;41.58;21.05;;;;;;;5.36;69.18;101934.99;1667330;85;28306;-75
2021/03/29 03:26:34;;;;;;;40.60;20.35;;;;;;;5.40;69.25;101928.94;1677468;83;26428;-76
2021/03/29 03:29:02;;;;;;;38.25;21.42;;;;;;;5.41;69.35;101923.50;1654642;83;25829;-75
2021/03/29 03:31:32;;;;;;;39.15;20.75;;;;;;;5.44;69.44;101920.61;1665220;83;25902;-76
2021/03/29 03:33:59;;;;;;;37.60;20.50;;;;;;;5.47;69.44;101912.38;1664244;84;25803;-76
2021/03/29 03:36:29;;;;;;;39.70;20.90;;;;;;;5.50;69.60;101911.30;1653093;83;27489;-76
2021/03/29 03:38:58;;;;;;;34.50;19.50;;;;;;;5.49;69.71;101913.61;1706817;83;25795;-75
2021/03/29 03:41:31;;;;;;;37.40;20.00;;;;;;;5.46;69.80;101911.17;1688597;83;25906;-76
2021/03/29 03:44:01;;;;;;;38.98;19.73;;;;;;;5.43;69.90;101917.58;1678092;83;26337;-75
2021/03/29 03:46:38;;;;;;;38.73;18.77;;;;;;;5.41;69.90;101923.97;1681979;83;25900;-76
2021/03/29 03:49:13;;;;;;;34.30;18.62;;;;;;;5.42;70.05;101927.86;1704948;83;29111;-75
2021/03/29 03:51:44;;;;;;;37.78;18.52;;;;;;;5.44;69.99;101929.05;1725396;81;25927;-76
2021/03/29 03:54:12;;;;;;;44.08;19.35;;;;;;;5.45;70.12;101923.61;1719587;83;26367;-75
2021/03/29 03:56:40;;;;;;;36.13;18.73;;;;;;;5.43;70.25;101934.02;1685914;83;25916;-75
2021/03/29 03:59:09;;;;;;;33.75;17.17;;;;;;;5.44;70.29;101949.84;1671483;84;25895;-75
2021/03/29 04:01:57;;;;;;;37.70;19.02;;;;;;;5.44;70.16;101945.00;1674365;83;28433;-75
2021/03/29 04:04:25;;;;;;;34.23;18.37;;;;;;;5.42;70.07;101949.11;1705383;81;25758;-76
2021/03/29 04:06:52;;;;;;;35.05;19.65;;;;;;;5.41;70.11;101954.53;1636547;84;25898;-75
2021/03/29 04:09:23;;;;;;;34.83;18.42;;;;;;;5.40;70.19;101951.05;1669304;82;25865;-76
2021/03/29 04:11:51;;;;;;;37.95;19.02;;;;;;;5.42;70.33;101949.59;1700589;83;25806;-76
2021/03/29 04:14:18;;;;;;;37.88;18.57;;;;;;;5.41;70.36;101951.87;1676565;83;27427;-76
2021/03/29 04:16:45;;;;;;;34.35;18.40;;;;;;;5.43;70.42;101952.12;1670847;83;26435;-75
2021/03/29 04:19:12;;;;;;;40.60;19.10;;;;;;;5.43;70.57;101955.28;1688890;83;25770;-76
2021/03/29 04:21:40;;;;;;;34.13;18.80;;;;;;;5.42;70.45;101957.56;1681274;83;26585;-76
2021/03/29 04:24:08;;;;;;;36.95;18.98;;;;;;;5.44;70.60;101958.28;1680822;82;25918;-75
2021/03/29 04:26:35;;;;;;;38.45;19.90;;;;;;;5.46;70.66;101955.02;1681066;83;27712;-75
2021/03/29 04:29:03;;;;;;;36.98;19.15;;;;;;;5.48;70.71;101957.08;1656407;83;25819;-75
2021/03/29 04:31:32;;;;;;;34.50;18.82;;;;;;;5.50;70.83;101952.48;1657417;83;25941;-76
2021/03/29 04:34:00;;;;;;;30.90;18.48;;;;;;;5.52;70.92;101948.40;1678439;83;26144;-76
2021/03/29 04:36:27;;;;;;;37.30;20.08;;;;;;;5.54;70.95;101951.27;1675405;83;26146;-75
2021/03/29 04:38:54;;;;;;;40.45;19.45;;;;;;;5.51;70.95;101947.55;1664482;83;27558;-76
2021/03/29 04:41:22;;;;;;;38.95;18.17;;;;;;;5.50;71.01;101941.85;1684476;83;26009;-76
2021/03/29 04:43:49;;;;;;;40.50;19.65;;;;;;;5.49;71.17;101935.69;1684563;83;25699;-76
2021/03/29 04:46:16;;;;;;;36.95;18.40;;;;;;;5.49;71.31;101944.16;1687121;83;25948;-76
2021/03/29 04:48:44;;;;;;;35.05;18.48;;;;;;;5.48;71.43;101941.13;1668080;83;26531;-76
2021/03/29 04:51:11;;;;;;;33.78;19.17;;;;;;;5.46;71.48;101941.73;1672258;83;28071;-76
2021/03/29 04:53:38;;;;;;;34.08;17.05;;;;;;;5.45;71.70;101936.89;1679555;83;25574;-77
2021/03/29 04:56:07;;;;;;;38.53;19.02;;;;;;;5.45;71.76;101938.73;1675114;83;25853;-76
2021/03/29 04:58:34;;;;;;;37.70;19.07;;;;;;;5.45;71.94;101937.41;1655471;83;26111;-77
2021/03/29 05:01:01;;;;;;;29.85;17.10;;;;;;;5.47;72.02;101934.96;1682085;83;25824;-77
2021/03/29 05:03:29;;;;;;;34.18;17.70;;;;;;;5.49;72.19;101937.02;1705355;83;28471;-77
2021/03/29 05:05:56;;;;;;;34.43;18.52;;;;;;;5.47;72.32;101938.95;1681999;83;25910;-77
2021/03/29 05:08:23;;;;;;;34.45;16.30;;;;;;;5.50;72.47;101936.53;1659506;84;25949;-77
2021/03/29 05:10:51;;;;;;;34.63;19.27;;;;;;;5.51;72.62;101940.05;1683474;83;25883;-77
2021/03/29 05:13:18;;;;;;;37.33;21.85;;;;;;;5.53;72.73;101934.98;1710570;83;25728;-77
2021/03/29 05:15:46;;;;;;;33.02;19.05;;;;;;;5.56;72.87;101928.07;1682645;83;27519;-77
2021/03/29 05:18:13;;;;;;;32.80;17.62;;;;;;;5.60;72.93;101928.22;1698467;82;25890;-77
2021/03/29 05:20:41;;;;;;;29.15;18.50;;;;;;;5.63;73.07;101917.80;1671513;83;25868;-77
2021/03/29 05:23:08;;;;;;;40.78;18.95;;;;;;;5.67;73.08;101916.10;1674998;83;25900;-78
2021/03/29 05:25:35;;;;;;;37.88;19.85;;;;;;;5.73;73.17;101924.91;1651939;83;26587;-79
2021/03/29 05:28:03;;;;;;;40.33;20.65;;;;;;;5.80;73.32;101921.27;1678112;83;27627;-77
2021/03/29 05:30:30;;;;;;;35.35;19.62;;;;;;;5.86;73.36;101926.97;1696208;83;26126;-76
2021/03/29 05:32:59;;;;;;;38.42;19.17;;;;;;;5.91;73.33;101929.27;1677274;82;25858;-75
2021/03/29 05:35:27;;;;;;;37.67;18.10;;;;;;;5.94;73.43;101934.34;1684501;83;25764;-75
2021/03/29 05:37:54;;;;;;;33.80;18.10;;;;;;;5.94;73.48;101928.55;1683828;82;26533;-76
2021/03/29 05:40:22;;;;;;;30.17;18.07;;;;;;;5.93;73.47;101932.64;1683692;82;28525;-76
2021/03/29 05:42:51;;;;;;;28.83;15.55;;;;;;;5.95;73.55;101934.22;1681535;82;25949;-76
2021/03/29 05:45:19;;;;;;;32.20;15.70;;;;;;;5.94;73.55;101932.55;1686809;82;25798;-76
2021/03/29 05:47:47;;;;;;;30.70;15.38;;;;;;;5.95;73.51;101938.20;1690493;82;26447;-76
2021/03/29 05:50:17;;;;;;;23.87;13.90;;;;;;;5.98;73.71;101939.77;1685415;83;26060;-76
2021/03/29 05:52:46;;;;;;;26.40;14.50;;;;;;;6.00;73.77;101936.03;1660302;84;27366;-76
2021/03/29 05:55:21;;;;;;;27.98;14.85;;;;;;;6.00;73.73;101936.03;1693879;81;25914;-76
2021/03/29 06:00:41;;;;;;;29.12;13.60;;;;;;;6.06;73.84;101930.20;1693718;83;25819;-76
2021/03/29 06:03:30;;;;;;;29.72;13.70;;;;;;;6.09;73.85;101931.77;1682937;84;26019;-75
2021/03/29 06:06:01;;;;;;;29.95;14.70;;;;;;;6.11;73.89;101924.03;1679801;82;27506;-75
2021/03/29 06:08:30;;;;;;;28.20;14.58;;;;;;;6.15;73.93;101922.80;1691624;82;25866;-75
2021/03/29 06:11:01;;;;;;;24.90;13.40;;;;;;;6.19;73.84;101922.05;1682832;82;25817;-75
2021/03/29 06:13:31;;;;;;;28.55;13.98;;;;;;;6.20;74.02;101929.08;1690549;82;25802;-76
2021/03/29 06:16:11;;;;;;;27.02;12.98;;;;;;;6.21;74.00;101935.59;1677648;83;25810;-75
2021/03/29 06:18:50;;;;;;;28.77;13.85;;;;;;;6.23;73.99;101936.31;1670290;82;27546;-75
2021/03/29 06:21:18;;;;;;;22.10;13.78;;;;;;;6.26;74.11;101939.69;1714193;82;25809;-76
2021/03/29 06:23:59;;;;;;;22.07;13.78;;;;;;;6.27;74.23;101944.88;1689799;82;26721;-75
2021/03/29 06:26:32;;;;;;;28.52;14.58;;;;;;;6.30;74.34;101949.11;1668823;84;25801;-76
2021/03/29 06:29:05;;;;;;;29.77;14.93;;;;;;;6.32;74.47;101948.49;1688098;82;26493;-76
2021/03/29 06:31:34;;;;;;;24.67;14.55;;;;;;;6.35;74.45;101950.41;1688693;82;27644;-75
2021/03/29 06:34:03;;;;;;;25.62;13.50;;;;;;;6.38;74.60;101954.63;1694751;84;25948;-75
2021/03/29 06:36:40;;;;;;;27.98;13.43;;;;;;;6.39;74.57;101962.99;1669260;83;26145;-76
2021/03/29 06:39:23;;;;;;;24.25;13.98;;;;;;;6.41;74.62;101965.89;1667888;84;26212;-75
2021/03/29 06:41:57;;;;;;;22.32;13.22;;;;;;;6.44;74.72;101967.42;1660115;85;26218;-75
2021/03/29 06:44:35;;;;;;;30.10;13.93;;;;;;;6.44;74.82;101964.29;1688731;82;28552;-75
2021/03/29 06:47:09;;;;;;;29.98;15.00;;;;;;;6.45;74.97;101966.47;1695193;83;26634;-76
2021/03/29 06:49:43;;;;;;;33.42;15.93;;;;;;;6.46;75.02;101966.33;1694602;83;26144;-75
2021/03/29 06:52:33;;;;;;;22.55;13.45;;;;;;;6.49;75.12;101976.74;1674300;83;26188;-75
2021/03/29 06:55:26;;;;;;;29.12;14.00;;;;;;;6.52;75.63;101976.47;1693684;83;25817;-76
2021/03/29 06:58:11;;;;;;;23.15;14.00;;;;;;;6.53;75.36;101974.66;1694783;83;27724;-75
2021/03/29 07:00:40;;;;;;;25.55;13.98;;;;;;;6.57;75.44;101984.08;1654247;84;26106;-76
2021/03/29 07:03:09;;;;;;;31.97;15.08;;;;;;;6.58;75.71;101981.31;1665262;85;25915;-76
2021/03/29 07:05:37;;;;;;;21.93;14.28;;;;;;;6.60;75.98;101980.70;1644141;83;25662;-76
2021/03/29 07:08:07;;;;;;;26.97;14.10;;;;;;;6.62;75.95;101980.08;1701195;82;25750;-76
2021/03/29 07:10:37;;;;;;;26.68;15.35;;;;;;;6.67;76.14;101981.03;1703821;83;28550;-75
2021/03/29 07:13:13;;;;;;;29.02;16.32;;;;;;;6.71;76.38;101981.98;1689884;83;25955;-76
2021/03/29 07:15:42;;;;;;;28.80;15.63;;;;;;;6.74;76.29;101978.19;1688592;83;25750;-75
2021/03/29 07:18:10;;;;;;;27.70;16.67;;;;;;;6.79;76.57;101978.19;1655371;83;26060;-75
2021/03/29 07:20:38;;;;;;;27.00;15.00;;;;;;;6.86;76.54;101979.84;1663995;83;25889;-75
2021/03/29 07:23:06;;;;;;;29.30;15.90;;;;;;;6.91;76.71;101976.28;1654291;83;27336;-75
2021/03/29 07:25:35;;;;;;;27.67;15.83;;;;;;;6.95;76.76;101975.90;1672711;82;25832;-75
2021/03/29 07:28:10;;;;;;;25.70;15.27;;;;;;;7.00;76.71;101963.52;1691783;83;25878;-75
2021/03/29 07:30:54;;;;;;;34.03;17.05;;;;;;;7.07;77.01;101957.19;1691884;83;25799;-75
2021/03/29 07:33:23;;;;;;;32.03;16.65;;;;;;;7.11;77.12;101956.80;1687563;83;25910;-76
2021/03/29 07:35:56;;;;;;;25.72;15.93;;;;;;;7.17;77.11;101968.26;1707650;81;27646;-76
2021/03/29 07:38:32;;;;;;;34.92;17.12;;;;;;;7.24;77.28;101973.42;1678842;81;26270;-76
2021/03/29 07:41:01;;;;;;;29.30;16.05;;;;;;;7.31;77.27;101966.60;1697733;81;25731;-76
2021/03/29 07:43:30;;;;;;;31.15;15.88;;;;;;;7.38;77.36;101970.88;1706154;81;26022;-76
2021/03/29 07:46:04;;;;;;;30.40;16.48;;;;;;;7.43;77.43;101972.67;1687247;82;25864;-75
2021/03/29 07:48:39;;;;;;;28.05;17.40;;;;;;;7.50;77.67;101970.69;1679781;83;28591;-75
2021/03/29 07:51:17;;;;;;;30.65;16.95;;;;;;;7.60;77.83;101976.90;1727648;81;26662;-76
2021/03/29 07:53:51;;;;;;;28.87;15.75;;;;;;;7.69;78.03;101976.58;1665382;84;25929;-76
2021/03/29 07:56:41;;;;;;;27.30;15.98;;;;;;;7.74;77.67;101973.03;1680700;83;26500;-76
2021/03/29 07:59:09;;;;;;;24.82;15.18;;;;;;;7.75;77.61;101972.89;1661897;83;26425;-77
2021/03/29 08:02:01;;;;;;;28.38;16.20;;;;;;;7.79;77.71;101973.45;1667423;83;27665;-76
2021/03/29 08:07:54;;;;;;;33.53;18.83;;;;;;;7.95;77.71;101960.94;1804045;77;34842;-76
2021/03/29 08:10:19;;;;;;;25.82;15.83;;;;;;;8.15;77.39;101966.17;1755127;79;25835;-76
2021/03/29 08:13:02;;;;;;;29.92;16.05;;;;;;;8.16;77.68;101961.20;1742956;80;27317;-76
2021/03/29 08:16:10;;;;;;;28.40;17.20;;;;;;;8.19;77.72;101958.23;1713429;81;25778;-76
2021/03/29 08:19:20;;;;;;;29.25;16.10;;;;;;;8.28;78.06;101960.12;1730930;80;26296;-76
2021/03/29 08:22:11;;;;;;;27.65;14.90;;;;;;;8.36;78.21;101956.25;1719248;80;25945;-76
2021/03/29 08:24:47;;;;;;;35.95;16.73;;;;;;;8.43;78.29;101960.06;1744763;81;25815;-76
2021/03/29 08:27:23;;;;;;;24.23;15.45;;;;;;;8.51;78.24;101960.71;1761520;80;27601;-76
2021/03/29 08:29:53;;;;;;;27.05;13.90;;;;;;;8.59;78.36;101958.17;1740457;80;25737;-76
2021/03/29 08:32:36;;;;;;;28.67;15.25;;;;;;;8.68;78.38;101960.49;1725935;81;25763;-76
2021/03/29 08:35:11;;;;;;;25.10;15.70;;;;;;;8.75;78.36;101961.59;1751200;80;26456;-76
2021/03/29 08:37:48;;;;;;;29.75;14.80;;;;;;;8.82;78.58;101964.05;1751214;80;25902;-76
2021/03/29 08:40:26;;;;;;;24.55;14.00;;;;;;;8.88;78.56;101954.98;1703906;80;28396;-77
2021/03/29 08:42:57;;;;;;;26.12;14.33;;;;;;;8.95;78.22;101960.59;1712987;81;26189;-76
2021/03/29 08:45:26;;;;;;;22.40;13.70;;;;;;;8.99;78.35;101955.31;1713686;81;25879;-76
2021/03/29 08:47:58;;;;;;;26.65;15.65;;;;;;;9.04;78.11;101961.92;1741336;81;26354;-76
2021/03/29 08:50:36;;;;;;;32.63;17.82;;;;;;;9.08;78.17;101963.81;1698740;81;26064;-76
2021/03/29 08:53:07;;;;;;;22.75;13.75;;;;;;;9.12;78.18;101966.54;1708678;81;27613;-76
2021/03/29 08:55:37;;;;;;;22.13;13.43;;;;;;;9.14;77.83;101969.91;1745030;81;25814;-75
2021/03/29 08:58:05;;;;;;;23.55;14.00;;;;;;;9.15;77.74;101964.93;1743358;81;25736;-75
2021/03/29 09:00:37;;;;;;;24.60;14.05;;;;;;;9.19;77.67;101968.52;1704123;81;25744;-76
2021/03/29 09:03:19;;;;;;;23.22;13.40;;;;;;;9.23;77.48;101969.05;1716182;81;25832;-76
2021/03/29 09:05:48;;;;;;;23.18;13.65;;;;;;;9.25;77.51;101972.42;1735392;81;28256;-76
2021/03/29 09:08:16;;;;;;;26.27;15.48;;;;;;;9.30;77.65;101972.84;1686692;84;25764;-76
2021/03/29 09:10:44;;;;;;;25.65;15.80;;;;;;;9.35;77.91;101978.58;1676779;83;25801;-76
2021/03/29 09:13:15;;;;;;;26.85;14.30;;;;;;;9.38;77.37;101976.96;1681301;83;26273;-76
2021/03/29 09:18:27;;;;;;;24.60;13.83;;;;;;;9.48;76.88;101985.78;1797031;79;26227;-76
2021/03/29 09:20:54;;;;;;;26.13;14.37;;;;;;;9.44;76.94;101985.73;1747973;80;25823;-76
2021/03/29 09:23:32;;;;;;;25.52;13.98;;;;;;;9.48;77.07;101988.95;1725987;80;27390;-76
2021/03/29 09:26:01;;;;;;;23.95;14.15;;;;;;;9.50;76.60;101991.83;1728938;82;25703;-76
2021/03/29 09:28:34;;;;;;;22.98;14.05;;;;;;;9.55;76.91;101986.05;1645851;83;25740;-77
2021/03/29 09:31:05;;;;;;;19.90;13.15;;;;;;;9.63;76.52;101980.80;1654039;85;25902;-75
2021/03/29 09:33:32;;;;;;;26.75;13.95;;;;;;;9.69;76.21;101981.55;1644907;84;25802;-76
2021/03/29 09:36:10;;;;;;;24.40;14.00;;;;;;;9.76;76.78;101988.84;1679628;84;28447;-76
2021/03/29 09:38:44;;;;;;;22.62;14.87;;;;;;;9.83;76.43;101987.77;1630815;84;25806;-76
2021/03/29 09:41:25;;;;;;;25.72;13.50;;;;;;;9.86;75.75;101984.28;1631551;84;26475;-76
2021/03/29 09:43:55;;;;;;;24.15;13.08;;;;;;;9.90;76.02;101995.04;1652868;84;25941;-77
2021/03/29 09:46:31;;;;;;;23.12;13.43;;;;;;;9.92;75.91;101985.02;1678872;84;26014;-76
2021/03/29 09:49:11;;;;;;;23.22;13.65;;;;;;;9.97;75.92;101990.78;1632828;84;27543;-76
2021/03/29 09:51:42;;;;;;;24.47;12.70;;;;;;;10.02;76.02;101987.66;1625373;84;26467;-76
2021/03/29 09:54:28;;;;;;;22.93;13.62;;;;;;;10.03;75.76;101987.50;1643831;84;25819;-77
2021/03/29 09:56:58;;;;;;;25.70;13.95;;;;;;;10.06;75.68;101981.86;1661402;84;25800;-77
2021/03/29 09:59:36;;;;;;;23.70;13.67;;;;;;;10.13;75.91;101982.14;1624912;85;25810;-76
2021/03/29 10:02:27;;;;;;;24.95;13.58;;;;;;;10.18;75.97;101974.48;1616950;85;27562;-77
2021/03/29 10:05:10;;;;;;;24.02;14.25;;;;;;;10.22;75.54;101978.57;1644573;84;25926;-77
2021/03/29 10:07:53;;;;;;;25.25;13.85;;;;;;;10.26;75.56;101969.72;1675757;84;25797;-76
2021/03/29 10:10:30;;;;;;;27.40;14.80;;;;;;;10.27;75.10;101980.77;1608452;84;25803;-77
2021/03/29 10:13:11;;;;;;;25.08;14.30;;;;;;;10.29;75.19;101977.44;1631865;84;26285;-76
2021/03/29 10:15:41;;;;;;;25.60;15.35;;;;;;;10.29;74.85;101979.63;1646972;84;27444;-76
2021/03/29 10:18:14;;;;;;;28.30;16.00;;;;;;;10.30;74.87;101977.31;1679722;84;25947;-76
2021/03/29 10:20:45;;;;;;;30.85;16.05;;;;;;;10.34;74.80;101978.69;1633839;83;25828;-76
2021/03/29 10:23:30;;;;;;;26.45;15.48;;;;;;;10.40;75.12;101978.08;1652758;82;25432;-76
2021/03/29 10:26:16;;;;;;;24.20;15.68;;;;;;;10.50;75.13;101972.66;1640605;85;25878;-76
2021/03/29 10:29:01;;;;;;;29.07;16.05;;;;;;;10.57;74.85;101975.89;1650651;85;27575;-76
2021/03/29 10:31:31;;;;;;;29.30;15.68;;;;;;;10.66;74.40;101973.64;1630837;85;25945;-76
2021/03/29 10:34:00;;;;;;;33.45;18.87;;;;;;;10.74;74.37;101975.54;1634614;86;25949;-76
2021/03/29 10:36:30;;;;;;;27.48;16.15;;;;;;;10.79;73.87;101973.25;1671183;85;25380;-76
2021/03/29 10:38:58;;;;;;;29.63;15.80;;;;;;;10.85;73.27;101969.94;1670489;84;25853;-77
2021/03/29 10:41:26;;;;;;;28.20;15.70;;;;;;;10.93;73.04;101967.84;1599101;85;27584;-76
2021/03/29 10:43:54;;;;;;;30.25;16.95;;;;;;;10.99;73.32;101976.08;1612649;86;25944;-77
2021/03/29 10:46:21;;;;;;;29.92;17.12;;;;;;;11.06;73.44;101975.80;1654193;85;25936;-78
2021/03/29 10:48:48;;;;;;;29.60;16.12;;;;;;;11.13;73.20;101970.66;1679962;84;26077;-77
2021/03/29 10:51:16;;;;;;;26.30;15.90;;;;;;;11.18;72.98;101970.55;1604468;85;26097;-77
2021/03/29 10:53:43;;;;;;;24.50;14.93;;;;;;;11.19;72.55;101970.02;1634084;86;27660;-76
2021/03/29 10:56:10;;;;;;;25.95;16.05;;;;;;;11.21;72.54;101968.02;1664066;85;25997;-77
2021/03/29 10:58:38;;;;;;;27.02;15.13;;;;;;;11.23;72.16;101971.39;1661667;85;25789;-77
2021/03/29 11:01:05;;;;;;;27.77;13.55;;;;;;;11.20;71.88;101973.06;1613928;85;25815;-77
2021/03/29 11:03:32;;;;;;;24.18;12.30;;;;;;;11.16;71.73;101975.20;1613446;85;26206;-77
2021/03/29 11:06:00;;;;;;;21.87;11.88;;;;;;;11.12;71.45;101968.47;1636461;85;27344;-76
2021/03/29 11:08:27;;;;;;;20.97;12.05;;;;;;;11.12;71.34;101967.65;1661091;85;26311;-76
2021/03/29 11:10:54;;;;;;;29.67;14.20;;;;;;;11.09;71.31;101964.78;1605665;85;26219;-76
2021/03/29 11:13:21;;;;;;;24.77;11.80;;;;;;;11.08;71.46;101963.56;1628730;85;25825;-76
2021/03/29 11:15:49;;;;;;;19.40;10.35;;;;;;;11.10;71.78;101962.94;1686022;84;25952;-76
2021/03/29 11:18:18;;;;;;;18.45;9.50;;;;;;;11.13;71.58;101954.56;1651368;85;27697;-76
2021/03/29 11:20:46;;;;;;;21.77;9.63;;;;;;;11.13;70.97;101953.22;1641988;85;25803;-76
2021/03/29 11:23:14;;;;;;;19.75;10.40;;;;;;;11.17;71.00;101955.44;1605713;86;25739;-76
2021/03/29 11:25:41;;;;;;;19.07;9.00;;;;;;;11.20;70.34;101955.63;1631901;86;26445;-76
2021/03/29 11:28:09;;;;;;;19.40;10.25;;;;;;;11.21;70.36;101956.80;1615925;87;25973;-76
2021/03/29 11:30:36;;;;;;;25.82;10.53;;;;;;;11.21;70.68;101946.08;1626264;87;27539;-76
2021/03/29 11:33:04;;;;;;;22.58;10.43;;;;;;;11.28;70.97;101959.70;1597090;87;26038;-76
2021/03/29 11:35:31;;;;;;;23.42;9.90;;;;;;;11.36;70.97;101953.03;1632994;87;26117;-76
2021/03/29 11:37:59;;;;;;;18.35;10.10;;;;;;;11.44;71.01;101954.44;1615164;87;25752;-76
2021/03/29 11:40:26;;;;;;;16.97;9.98;;;;;;;11.52;70.70;101950.45;1594187;87;26583;-76
2021/03/29 11:42:54;;;;;;;17.55;10.50;;;;;;;11.58;70.39;101948.47;1595529;88;27551;-77
2021/03/29 11:45:22;;;;;;;19.12;9.85;;;;;;;11.68;70.46;101945.67;1627474;87;26172;-76